createdAt,value
2022-11-12T00:02:09.694Z,11.27
2022-11-12T00:04:36.657Z,12.27
2022-11-12T00:07:03.674Z,11.13
2022-11-12T00:09:30.678Z,11.97
2022-11-12T00:11:58.961Z,11.40
2022-11-12T00:14:26.055Z,11.20
2022-11-12T00:16:56.030Z,12.00
2022-11-12T00:19:23.047Z,12.90
2022-11-12T00:21:55.749Z,11.37
2022-11-12T00:24:22.966Z,14.43
2022-11-12T00:26:49.888Z,13.47
2022-11-12T00:29:18.296Z,12.07
2022-11-12T00:31:45.258Z,12.37
2022-11-12T00:34:12.317Z,13.83
2022-11-12T00:36:43.767Z,12.87
2022-11-12T00:39:10.878Z,12.53
2022-11-12T00:41:37.850Z,13.40
2022-11-12T00:44:05.222Z,14.90
2022-11-12T00:46:36.293Z,15.20
2022-11-12T00:49:03.486Z,13.17
2022-11-12T00:51:33.483Z,13.27
2022-11-12T00:54:00.632Z,13.17
2022-11-12T00:56:31.709Z,13.93
2022-11-12T00:59:01.688Z,11.80
2022-11-12T01:01:32.922Z,10.77
2022-11-12T01:04:03.609Z,11.00
2022-11-12T01:06:30.724Z,11.67
2022-11-12T01:09:04.115Z,11.83
2022-11-12T01:11:31.167Z,11.23
2022-11-12T01:14:00.354Z,10.90
2022-11-12T01:16:30.330Z,10.57
2022-11-12T01:19:07.329Z,10.70
2022-11-12T01:21:41.638Z,10.50
2022-11-12T01:24:09.802Z,10.07
2022-11-12T01:26:37.240Z,11.23
2022-11-12T01:29:05.330Z,10.83
2022-11-12T01:31:34.840Z,10.00
2022-11-12T01:34:10.036Z,10.20
2022-11-12T01:36:39.407Z,9.60
2022-11-12T01:39:10.202Z,9.20
2022-11-12T01:41:40.101Z,10.37
2022-11-12T01:44:14.338Z,9.10
2022-11-12T01:47:00.951Z,9.50
2022-11-12T01:49:39.894Z,9.03
2022-11-12T01:52:14.690Z,9.43
2022-11-12T01:54:49.593Z,8.80
2022-11-12T01:57:20.422Z,8.37
2022-11-12T01:59:50.542Z,9.07
2022-11-12T02:02:20.424Z,8.70
2022-11-12T02:04:50.564Z,8.10
2022-11-12T02:07:19.069Z,8.30
2022-11-12T02:09:46.280Z,8.83
2022-11-12T02:12:37.855Z,7.73
2022-11-12T02:15:06.698Z,8.40
2022-11-12T02:17:34.635Z,8.20
2022-11-12T02:20:09.470Z,8.50
2022-11-12T02:22:37.743Z,8.20
2022-11-12T02:25:05.968Z,8.13
2022-11-12T02:27:33.241Z,7.00
2022-11-12T02:30:07.405Z,7.63
2022-11-12T02:32:40.824Z,7.60
2022-11-12T02:35:08.468Z,6.70
2022-11-12T02:37:39.686Z,7.10
2022-11-12T02:40:10.765Z,6.60
2022-11-12T02:42:40.694Z,7.20
2022-11-12T02:45:11.466Z,7.40
2022-11-12T02:47:38.374Z,7.20
2022-11-12T02:50:06.606Z,6.67
2022-11-12T02:52:39.384Z,6.63
2022-11-12T02:55:12.473Z,7.00
2022-11-12T02:57:40.756Z,7.07
2022-11-12T03:00:14.666Z,6.47
2022-11-12T03:02:58.885Z,6.93
2022-11-12T03:05:36.942Z,7.90
2022-11-12T03:08:06.935Z,7.20
2022-11-12T03:10:38.334Z,6.93
2022-11-12T03:13:06.178Z,7.10
2022-11-12T03:15:33.167Z,7.77
2022-11-12T03:18:00.496Z,7.70
2022-11-12T03:20:28.592Z,7.73
2022-11-12T03:23:04.694Z,8.50
2022-11-12T03:25:32.415Z,8.40
2022-11-12T03:28:03.329Z,7.97
2022-11-12T03:30:34.912Z,7.03
2022-11-12T03:33:01.965Z,7.63
2022-11-12T03:35:32.327Z,6.90
2022-11-12T03:37:59.530Z,5.90
2022-11-12T03:40:30.689Z,6.15
2022-11-12T03:43:01.799Z,5.77
2022-11-12T03:45:31.952Z,6.20
2022-11-12T03:48:02.331Z,5.30
2022-11-12T03:50:35.502Z,6.70
2022-11-12T03:53:05.117Z,5.43
2022-11-12T03:55:41.388Z,5.93
2022-11-12T03:58:12.800Z,6.55
2022-11-12T04:00:39.975Z,6.25
2022-11-12T04:03:10.238Z,7.20
2022-11-12T04:05:55.957Z,6.53
2022-11-12T04:08:37.086Z,6.50
2022-11-12T04:11:08.766Z,6.80
2022-11-12T04:13:38.547Z,7.32
2022-11-12T04:16:30.767Z,5.75
2022-11-12T04:19:18.502Z,6.77
2022-11-12T04:21:55.207Z,6.65
2022-11-12T04:24:48.225Z,6.97
2022-11-12T04:27:17.388Z,7.10
2022-11-12T04:30:05.732Z,6.90
2022-11-12T04:32:36.646Z,6.50
2022-11-12T04:35:05.660Z,7.63
2022-11-12T04:37:47.862Z,7.68
2022-11-12T04:40:35.751Z,6.70
2022-11-12T04:43:27.347Z,6.30
2022-11-12T04:45:56.736Z,6.85
2022-11-12T04:48:25.828Z,7.60
2022-11-12T04:50:56.970Z,7.93
2022-11-12T04:53:24.628Z,6.60
2022-11-12T04:55:52.321Z,6.80
2022-11-12T04:58:22.511Z,6.63
2022-11-12T05:00:50.774Z,7.20
2022-11-12T05:03:21.823Z,7.37
2022-11-12T05:05:48.759Z,6.17
2022-11-12T05:08:18.550Z,6.03
2022-11-12T05:10:47.539Z,7.23
2022-11-12T05:13:14.613Z,6.63
2022-11-12T05:15:43.771Z,6.35
2022-11-12T05:18:10.675Z,6.35
2022-11-12T05:20:42.237Z,6.30
2022-11-12T05:23:09.160Z,6.13
2022-11-12T05:25:39.031Z,6.85
2022-11-12T05:28:07.143Z,6.37
2022-11-12T05:30:35.388Z,6.60
2022-11-12T05:33:05.158Z,6.45
2022-11-12T05:35:38.368Z,6.13
2022-11-12T05:38:06.718Z,6.85
2022-11-12T05:40:33.597Z,6.30
2022-11-12T05:43:03.760Z,6.27
2022-11-12T05:45:30.697Z,6.93
2022-11-12T05:48:00.901Z,5.80
2022-11-12T05:50:34.873Z,6.67
2022-11-12T05:53:08.511Z,6.47
2022-11-12T05:55:37.111Z,6.77
2022-11-12T05:58:05.968Z,6.30
2022-11-12T06:00:41.116Z,6.67
2022-11-12T06:03:14.863Z,6.13
2022-11-12T06:05:44.067Z,7.20
2022-11-12T06:08:21.974Z,6.30
2022-11-12T06:10:49.530Z,6.90
2022-11-12T06:13:17.006Z,6.53
2022-11-12T06:15:44.260Z,7.00
2022-11-12T06:18:21.567Z,6.77
2022-11-12T06:21:07.532Z,6.20
2022-11-12T06:23:36.088Z,6.03
2022-11-12T06:26:06.376Z,6.90
2022-11-12T06:28:33.332Z,7.20
2022-11-12T06:31:03.490Z,6.45
2022-11-12T06:33:30.686Z,6.00
2022-11-12T06:36:02.955Z,6.80
2022-11-12T06:38:37.258Z,5.87
2022-11-12T06:41:05.143Z,6.10
2022-11-12T06:43:33.647Z,5.68
2022-11-12T06:46:05.064Z,6.90
2022-11-12T06:48:32.268Z,5.60
2022-11-12T06:51:05.204Z,5.80
2022-11-12T06:53:36.696Z,6.40
2022-11-12T06:56:05.272Z,6.40
2022-11-12T06:58:32.593Z,5.53
2022-11-12T07:01:35.688Z,5.82
2022-11-12T07:04:02.871Z,5.13
2022-11-12T07:06:29.982Z,4.90
2022-11-12T07:08:58.296Z,5.95
2022-11-12T07:11:25.453Z,5.60
2022-11-12T07:13:59.943Z,5.25
2022-11-12T07:16:26.899Z,5.40
2022-11-12T07:18:53.902Z,4.93
2022-11-12T07:21:21.283Z,5.10
2022-11-12T07:23:48.438Z,5.65
2022-11-12T07:26:20.611Z,5.07
2022-11-12T07:28:56.572Z,4.97
2022-11-12T07:31:23.760Z,4.43
2022-11-12T07:34:00.941Z,5.53
2022-11-12T07:36:28.075Z,4.63
2022-11-12T07:38:55.096Z,5.53
2022-11-12T07:41:25.293Z,4.90
2022-11-12T07:43:53.873Z,4.93
2022-11-12T07:46:28.103Z,4.95
2022-11-12T07:49:13.396Z,4.32
2022-11-12T07:51:43.421Z,4.20
2022-11-12T07:54:15.146Z,5.18
2022-11-12T07:56:43.629Z,5.60
2022-11-12T07:59:12.987Z,5.00
2022-11-12T08:01:41.716Z,5.23
2022-11-12T08:04:10.567Z,5.40
2022-11-12T08:06:40.891Z,4.75
2022-11-12T08:09:08.990Z,5.38
2022-11-12T08:11:36.222Z,4.80
2022-11-12T08:14:10.870Z,5.80
2022-11-12T08:16:37.890Z,5.27
2022-11-12T08:19:04.959Z,5.80
2022-11-12T08:21:31.951Z,5.77
2022-11-12T08:24:02.230Z,5.67
2022-11-12T08:26:29.506Z,6.10
2022-11-12T08:28:56.540Z,5.77
2022-11-12T08:31:27.621Z,6.73
2022-11-12T08:33:54.626Z,6.13
2022-11-12T08:36:22.230Z,6.25
2022-11-12T08:38:54.602Z,6.80
2022-11-12T08:41:30.586Z,6.57
2022-11-12T08:44:04.248Z,5.97
2022-11-12T08:46:36.480Z,5.50
2022-11-12T08:49:06.302Z,6.23
2022-11-12T08:51:36.853Z,7.17
2022-11-12T08:54:04.133Z,7.57
2022-11-12T08:56:36.561Z,7.13
2022-11-12T08:59:07.506Z,7.50
2022-11-12T09:01:36.094Z,7.50
2022-11-12T09:04:03.200Z,7.93
2022-11-12T09:06:33.111Z,8.80
2022-11-12T09:09:00.326Z,8.60
2022-11-12T09:11:27.410Z,8.70
2022-11-12T09:13:57.260Z,9.27
2022-11-12T09:16:27.317Z,9.30
2022-11-12T09:18:55.662Z,8.67
2022-11-12T09:21:25.394Z,8.37
2022-11-12T09:23:52.403Z,8.77
2022-11-12T09:26:20.801Z,9.67
2022-11-12T09:28:59.754Z,9.70
2022-11-12T09:31:26.738Z,12.33
2022-11-12T09:33:58.014Z,9.87
2022-11-12T09:36:30.367Z,10.30
2022-11-12T09:38:57.331Z,9.40
2022-11-12T09:41:37.201Z,9.70
2022-11-12T09:44:09.278Z,9.83
2022-11-12T09:46:52.730Z,9.40
2022-11-12T09:49:25.967Z,10.50
2022-11-12T09:52:01.585Z,10.27
2022-11-12T09:54:32.541Z,10.30
2022-11-12T09:57:02.384Z,10.40
2022-11-12T09:59:33.108Z,11.07
2022-11-12T10:02:11.592Z,10.33
2022-11-12T10:05:06.972Z,10.50
2022-11-12T10:07:49.711Z,11.87
2022-11-12T10:10:39.611Z,10.63
2022-11-12T10:13:26.378Z,11.13
2022-11-12T10:16:26.569Z,10.40
2022-11-12T10:19:25.733Z,10.43
2022-11-12T10:22:04.660Z,10.83
2022-11-12T10:24:43.436Z,10.80
2022-11-12T10:27:19.928Z,12.10
2022-11-12T10:30:02.339Z,11.70
2022-11-12T10:32:31.965Z,10.80
2022-11-12T10:35:05.383Z,10.97
2022-11-12T10:37:49.937Z,13.03
2022-11-12T10:40:40.331Z,11.73
2022-11-12T10:43:26.023Z,12.03
2022-11-12T10:46:19.323Z,11.60
2022-11-12T10:48:57.493Z,11.80
2022-11-12T10:51:32.161Z,12.03
2022-11-12T10:54:20.273Z,12.73
2022-11-12T10:56:55.812Z,12.57
2022-11-12T10:59:24.105Z,13.37
2022-11-12T11:01:57.244Z,13.30
2022-11-12T11:04:32.691Z,13.80
2022-11-12T11:07:06.601Z,12.10
2022-11-12T11:09:35.214Z,12.50
2022-11-12T11:12:02.495Z,11.50
2022-11-12T11:14:38.163Z,13.00
2022-11-12T11:17:09.641Z,11.60
2022-11-12T11:19:40.270Z,12.33
2022-11-12T11:22:46.224Z,12.93
2022-11-12T11:25:22.821Z,12.57
2022-11-12T11:28:04.931Z,11.90
2022-11-12T11:30:32.842Z,13.50
2022-11-12T11:33:24.768Z,13.17
2022-11-12T11:36:07.838Z,13.23
2022-11-12T11:38:49.933Z,12.47
2022-11-12T11:41:48.650Z,14.33
2022-11-12T11:44:30.997Z,13.50
2022-11-12T11:47:59.395Z,13.67
2022-11-12T11:50:29.650Z,11.37
2022-11-12T11:53:18.838Z,11.67
2022-11-12T11:55:57.898Z,11.63
2022-11-12T11:58:53.459Z,12.63
2022-11-12T12:01:38.618Z,12.87
2022-11-12T12:04:48.549Z,15.23
2022-11-12T12:07:32.772Z,13.13
2022-11-12T12:10:09.506Z,12.90
2022-11-12T12:12:54.546Z,13.50
2022-11-12T12:16:10.917Z,13.63
2022-11-12T12:18:52.288Z,14.67
2022-11-12T12:21:23.262Z,14.30
2022-11-12T12:23:57.358Z,14.03
2022-11-12T12:26:32.873Z,14.50
2022-11-12T12:29:07.221Z,15.17
2022-11-12T12:31:40.296Z,15.33
2022-11-12T12:34:19.226Z,15.03
2022-11-12T12:36:50.482Z,16.77
2022-11-12T12:39:20.845Z,14.50
2022-11-12T12:41:55.601Z,14.67
2022-11-12T12:44:59.051Z,15.20
2022-11-12T12:47:36.887Z,14.17
2022-11-12T12:50:17.845Z,14.20
2022-11-12T12:53:25.548Z,13.00
2022-11-12T12:55:54.734Z,17.20
2022-11-12T12:58:30.853Z,16.77
2022-11-12T13:01:04.352Z,16.60
2022-11-12T13:04:04.614Z,15.03
2022-11-12T13:06:34.935Z,13.10
2022-11-12T13:09:06.517Z,15.33
2022-11-12T13:12:05.568Z,12.70
2022-11-12T13:15:08.853Z,14.17
2022-11-12T13:17:46.108Z,14.47
2022-11-12T13:20:38.010Z,14.10
2022-11-12T13:24:04.083Z,12.53
2022-11-12T13:26:58.350Z,12.33
2022-11-12T13:29:50.298Z,13.53
2022-11-12T13:32:38.113Z,12.70
2022-11-12T13:35:45.227Z,14.33
2022-11-12T13:38:17.487Z,13.27
2022-11-12T13:40:47.430Z,14.27
2022-11-12T13:43:35.289Z,14.03
2022-11-12T13:46:29.572Z,13.77
2022-11-12T13:49:08.653Z,13.07
2022-11-12T13:51:45.116Z,13.70
2022-11-12T13:54:38.469Z,13.93
2022-11-12T13:57:33.203Z,12.33
2022-11-12T14:00:26.901Z,14.20
2022-11-12T14:02:58.141Z,14.03
2022-11-12T14:05:31.197Z,13.60
2022-11-12T14:08:30.487Z,13.63
2022-11-12T14:11:18.021Z,14.33
2022-11-12T14:14:11.174Z,14.67
2022-11-12T14:17:02.923Z,13.57
2022-11-12T14:23:25.442Z,15.63
2022-11-12T14:25:55.617Z,15.63
2022-11-12T14:28:29.340Z,15.43
2022-11-12T14:30:58.945Z,15.50
2022-11-12T14:33:32.833Z,15.90
2022-11-12T14:36:03.520Z,14.27
2022-11-12T14:38:37.141Z,14.90
2022-11-12T14:41:15.624Z,15.50
2022-11-12T14:43:45.901Z,16.63
2022-11-12T14:46:27.940Z,16.00
2022-11-12T14:49:03.430Z,15.70
2022-11-12T14:51:42.920Z,16.33
2022-11-12T14:54:18.952Z,16.33
2022-11-12T14:56:48.937Z,17.37
2022-11-12T14:59:17.268Z,18.80
2022-11-12T15:04:59.519Z,18.90
2022-11-12T15:07:29.411Z,18.00
2022-11-12T15:09:58.008Z,19.00
2022-11-12T15:12:28.790Z,18.50
2022-11-12T15:15:09.887Z,18.27
2022-11-12T15:17:37.633Z,19.40
2022-11-12T15:20:14.433Z,22.57
2022-11-12T15:22:41.632Z,20.20
2022-11-12T15:25:23.701Z,18.30
2022-11-12T15:27:51.037Z,17.97
2022-11-12T15:30:28.919Z,19.90
2022-11-12T15:33:13.764Z,19.63
2022-11-12T15:35:56.398Z,18.50
2022-11-12T15:38:27.687Z,19.00
2022-11-12T15:40:57.924Z,19.63
2022-11-12T15:43:34.374Z,20.33
2022-11-12T15:46:02.337Z,18.90
2022-11-12T15:48:35.259Z,19.27
2022-11-12T15:51:07.592Z,20.50
2022-11-12T15:53:34.533Z,20.60
2022-11-12T15:56:08.811Z,21.07
2022-11-12T15:58:40.433Z,20.10
2022-11-12T16:01:12.771Z,23.60
2022-11-12T16:03:41.170Z,22.53
2022-11-12T16:06:11.127Z,21.40
2022-11-12T16:08:41.251Z,24.23
2022-11-12T16:11:31.904Z,22.43
2022-11-12T16:14:26.157Z,23.73
2022-11-12T16:16:53.653Z,24.00
2022-11-12T16:19:20.619Z,24.90
2022-11-12T16:21:47.565Z,23.60
2022-11-12T16:24:14.872Z,22.33
2022-11-12T16:26:43.307Z,23.53
2022-11-12T16:29:13.647Z,24.10
2022-11-12T16:31:46.989Z,25.50
2022-11-12T16:34:13.978Z,25.10
2022-11-12T16:36:52.914Z,27.17
2022-11-12T16:39:19.841Z,25.70
2022-11-12T16:41:51.579Z,27.63
2022-11-12T16:44:18.566Z,25.63
2022-11-12T16:46:48.541Z,22.53
2022-11-12T16:49:23.306Z,23.60
2022-11-12T16:51:53.116Z,24.03
2022-11-12T16:54:23.152Z,24.00
2022-11-12T16:57:03.720Z,23.13
2022-11-12T16:59:33.775Z,20.73
2022-11-12T17:02:03.299Z,21.00
2022-11-12T17:04:36.237Z,21.23
2022-11-12T17:07:06.487Z,23.57
2022-11-12T17:09:33.785Z,23.17
2022-11-12T17:12:00.700Z,23.93
2022-11-12T17:14:31.227Z,24.80
2022-11-12T17:16:58.186Z,22.80
2022-11-12T17:19:28.342Z,24.27
2022-11-12T17:22:01.642Z,23.50
2022-11-12T17:24:29.147Z,22.67
2022-11-12T17:27:05.230Z,20.10
2022-11-12T17:29:36.122Z,20.80
2022-11-12T17:32:06.193Z,22.47
2022-11-12T17:34:33.497Z,22.27
2022-11-12T17:37:02.871Z,21.60
2022-11-12T17:39:32.882Z,21.47
2022-11-12T17:41:59.928Z,19.77
2022-11-12T17:44:26.883Z,19.20
2022-11-12T17:46:55.230Z,19.90
2022-11-12T17:49:25.221Z,18.80
2022-11-12T17:51:52.956Z,18.80
2022-11-12T17:54:21.237Z,18.93
2022-11-12T17:56:54.271Z,20.17
2022-11-12T17:59:24.449Z,21.27
2022-11-12T18:01:56.426Z,21.07
2022-11-12T18:04:31.017Z,21.90
2022-11-12T18:06:58.791Z,22.93
2022-11-12T18:09:25.757Z,24.50
2022-11-12T18:11:56.760Z,27.87
2022-11-12T18:14:29.975Z,26.40
2022-11-12T18:17:01.319Z,22.53
2022-11-12T18:19:28.344Z,22.33
2022-11-12T18:21:59.035Z,23.97
2022-11-12T18:24:31.591Z,22.93
2022-11-12T18:26:58.558Z,26.30
2022-11-12T18:29:28.447Z,27.40
2022-11-12T18:31:55.597Z,26.73
2022-11-12T18:34:26.117Z,22.40
2022-11-12T18:36:53.185Z,22.77
2022-11-12T18:39:20.136Z,20.47
2022-11-12T18:41:47.176Z,23.07
2022-11-12T18:44:14.337Z,21.83
2022-11-12T18:46:44.443Z,22.60
2022-11-12T18:49:11.446Z,22.77
2022-11-12T18:51:46.385Z,22.53
2022-11-12T18:54:14.116Z,22.13
2022-11-12T18:56:42.526Z,22.23
2022-11-12T18:59:24.694Z,22.80
2022-11-12T19:01:51.922Z,23.50
2022-11-12T19:04:25.529Z,22.80
2022-11-12T19:06:59.959Z,24.23
2022-11-12T19:09:27.168Z,25.10
2022-11-12T19:12:01.215Z,23.60
2022-11-12T19:14:29.707Z,26.33
2022-11-12T19:16:59.378Z,25.53
2022-11-12T19:19:27.037Z,24.87
2022-11-12T19:21:57.489Z,26.30
2022-11-12T19:24:38.313Z,25.77
2022-11-12T19:27:10.752Z,26.80
2022-11-12T19:29:37.792Z,25.80
2022-11-12T19:32:07.456Z,25.63
2022-11-12T19:34:51.031Z,25.63
2022-11-12T19:37:37.200Z,25.00
2022-11-12T19:40:07.997Z,27.20
2022-11-12T19:42:35.067Z,25.70
2022-11-12T19:45:02.782Z,24.10
2022-11-12T19:47:33.155Z,24.53
2022-11-12T19:50:00.257Z,21.73
2022-11-12T19:52:30.039Z,25.53
2022-11-12T19:55:00.921Z,26.23
2022-11-12T19:57:35.729Z,25.47
2022-11-12T20:00:10.298Z,23.67
2022-11-12T20:02:37.560Z,24.17
2022-11-12T20:05:06.625Z,24.47
2022-11-12T20:07:43.725Z,25.17
2022-11-12T20:10:15.707Z,23.20
2022-11-12T20:12:45.188Z,21.37
2022-11-12T20:15:13.372Z,28.40
2022-11-12T20:17:40.833Z,29.00
2022-11-12T20:20:11.963Z,25.00
2022-11-12T20:22:38.854Z,24.37
2022-11-12T20:25:07.799Z,24.08
2022-11-12T20:27:35.035Z,20.30
2022-11-12T20:30:05.193Z,22.40
2022-11-12T20:32:32.130Z,23.13
2022-11-12T20:34:59.494Z,22.80
2022-11-12T20:37:30.436Z,18.87
2022-11-12T20:39:57.483Z,21.10
2022-11-12T20:42:24.407Z,21.87
2022-11-12T20:44:51.404Z,22.87
2022-11-12T20:47:28.839Z,23.43
2022-11-12T20:49:55.854Z,23.37
2022-11-12T20:52:25.222Z,21.55
2022-11-12T20:54:52.383Z,21.77
2022-11-12T20:57:19.350Z,21.37
2022-11-12T20:59:49.137Z,21.63
2022-11-12T21:02:31.208Z,20.80
2022-11-12T21:04:59.590Z,21.53
2022-11-12T21:07:35.852Z,19.17
2022-11-12T21:10:03.666Z,22.90
2022-11-12T21:12:31.032Z,22.23
2022-11-12T21:14:58.049Z,20.88
2022-11-12T21:17:28.011Z,25.10
2022-11-12T21:20:04.193Z,18.07
2022-11-12T21:22:37.781Z,18.70
2022-11-12T21:25:10.880Z,18.97
2022-11-12T21:27:37.938Z,19.20
2022-11-12T21:30:09.879Z,18.37
2022-11-12T21:32:42.834Z,19.60
2022-11-12T21:35:14.327Z,18.43
2022-11-12T21:37:41.758Z,16.40
2022-11-12T21:40:18.841Z,17.90
2022-11-12T21:42:48.680Z,21.47
2022-11-12T21:45:19.135Z,23.57
2022-11-12T21:47:55.484Z,22.90
2022-11-12T21:50:23.737Z,25.90
2022-11-12T21:52:57.420Z,24.77
2022-11-12T21:55:24.389Z,24.63
2022-11-12T21:57:52.024Z,19.27
2022-11-12T22:00:41.637Z,20.85
2022-11-12T22:03:12.096Z,17.70
2022-11-12T22:05:40.392Z,19.75
2022-11-12T22:08:07.353Z,18.40
2022-11-12T22:10:39.540Z,18.13
2022-11-12T22:13:25.775Z,18.77
2022-11-12T22:15:53.584Z,16.52
2022-11-12T22:18:20.644Z,16.00
2022-11-12T22:20:57.734Z,17.40
2022-11-12T22:23:32.924Z,17.55
2022-11-12T22:26:03.009Z,17.75
2022-11-12T22:28:30.592Z,15.73
2022-11-12T22:31:04.295Z,16.77
2022-11-12T22:33:35.012Z,17.90
2022-11-12T22:36:05.419Z,16.60
2022-11-12T22:38:34.572Z,16.60
2022-11-12T22:41:04.176Z,15.40
2022-11-12T22:43:32.567Z,16.77
2022-11-12T22:46:07.942Z,14.07
2022-11-12T22:48:35.215Z,13.55
2022-11-12T22:51:14.439Z,13.85
2022-11-12T22:53:41.710Z,15.25
2022-11-12T22:56:15.157Z,15.18
2022-11-12T22:58:45.060Z,16.52
2022-11-12T23:01:21.921Z,15.15
2022-11-12T23:03:54.855Z,17.33
2022-11-12T23:06:24.237Z,17.43
2022-11-12T23:08:59.037Z,16.52
2022-11-12T23:11:29.293Z,16.40
2022-11-12T23:13:59.338Z,16.92
2022-11-12T23:16:33.127Z,15.77
2022-11-12T23:19:02.955Z,17.05
2022-11-12T23:21:33.761Z,14.67
2022-11-12T23:24:00.703Z,15.60
2022-11-12T23:26:31.020Z,14.40
2022-11-12T23:28:58.107Z,14.75
2022-11-12T23:31:34.247Z,15.05
2022-11-12T23:34:01.798Z,13.63
2022-11-12T23:36:35.893Z,14.95
2022-11-12T23:39:05.823Z,14.52
2022-11-12T23:41:32.787Z,14.73
2022-11-12T23:44:03.018Z,13.27
2022-11-12T23:46:32.450Z,12.20
2022-11-12T23:49:02.849Z,12.80
2022-11-12T23:51:29.775Z,12.50
2022-11-12T23:53:58.168Z,11.18
2022-11-12T23:56:33.826Z,13.15
2022-11-12T23:59:06.989Z,12.45
